Time;durP1;ratioP1;P1;durP2;ratioP2;P2;SDS_P1;SDS_P2;PMS_P1;PMS_P2;Temp;Humidity;BMP_temperature;BMP_pressure;BME280_temperature;BME280_humidity;BME280_pressure;Samples;Min_cycle;Max_cycle;Signal;HPM_P1;HPM_P2
2021/12/24 00:02:17;;;;;;;11.38;5.68;;;8.90;76.90;;;;;;5049242;28;20044;-72
2021/12/24 00:04:43;;;;;;;11.75;6.18;;;8.90;77.00;;;;;;5048257;28;20467;-72
2021/12/24 00:07:09;;;;;;;8.75;5.25;;;8.90;77.00;;;;;;5048847;28;20381;-72
2021/12/24 00:09:36;;;;;;;7.85;4.75;;;8.80;76.80;;;;;;5048684;28;20048;-72
2021/12/24 00:12:12;;;;;;;8.70;5.28;;;8.80;76.90;;;;;;5048498;28;20052;-73
2021/12/24 00:14:42;;;;;;;10.52;5.28;;;8.80;76.90;;;;;;5048454;28;20036;-72
2021/12/24 00:17:08;;;;;;;11.68;6.55;;;8.80;76.90;;;;;;5047296;28;20025;-72
2021/12/24 00:20:07;;;;;;;9.60;5.75;;;8.80;76.90;;;;;;5048247;28;20090;-72
2021/12/24 00:36:16;;;;;;;13.60;6.10;;;8.70;76.70;;;;;;5048339;28;20075;-71
2021/12/24 00:38:42;;;;;;;9.48;6.05;;;8.70;76.70;;;;;;5035999;28;20449;-71
2021/12/24 00:41:09;;;;;;;10.20;5.60;;;8.70;76.80;;;;;;5050293;28;20534;-71
2021/12/24 00:43:35;;;;;;;8.88;6.00;;;8.70;77.30;;;;;;5068258;28;20326;-71
2021/12/24 00:46:00;;;;;;;9.15;5.97;;;8.70;76.90;;;;;;5067389;28;20043;-72
2021/12/24 00:48:26;;;;;;;10.18;5.22;;;8.70;76.90;;;;;;5067530;28;20045;-71
2021/12/24 00:56:01;;;;;;;8.88;5.65;;;8.80;77.10;;;;;;5050039;28;20041;-71
2021/12/24 00:58:29;;;;;;;8.63;5.35;;;8.80;77.00;;;;;;5032834;28;20510;-72
2021/12/24 01:00:55;;;;;;;8.77;5.70;;;8.80;77.00;;;;;;5050098;28;20037;-71
2021/12/24 01:03:23;;;;;;;13.85;5.72;;;8.80;76.90;;;;;;5067786;28;20039;-71
2021/12/24 01:05:50;;;;;;;9.25;6.22;;;8.70;76.80;;;;;;5067094;28;20035;-71
2021/12/24 01:08:17;;;;;;;9.40;5.50;;;8.70;76.80;;;;;;5066276;28;20029;-71
2021/12/24 01:10:50;;;;;;;8.90;5.28;;;8.70;76.80;;;;;;5067292;28;20028;-71
2021/12/24 01:13:16;;;;;;;7.70;4.95;;;8.70;76.80;;;;;;5049266;28;20028;-71
2021/12/24 01:15:57;;;;;;;10.25;5.50;;;8.60;76.60;;;;;;5048333;28;20087;-71
2021/12/24 01:23:48;;;;;;;9.30;6.35;;;8.50;76.50;;;;;;5049161;28;20403;-71
2021/12/24 01:26:39;;;;;;;10.10;4.85;;;8.50;76.60;;;;;;5049282;28;20024;-71
2021/12/24 01:29:33;;;;;;;8.60;4.78;;;8.50;76.60;;;;;;5048840;28;20029;-71
2021/12/24 01:42:44;;;;;;;8.35;5.07;;;8.50;76.70;;;;;;5028677;28;20037;-70
2021/12/24 01:45:24;;;;;;;9.90;5.10;;;8.50;76.70;;;;;;5046739;28;20037;-73
2021/12/24 01:47:53;;;;;;;12.50;5.95;;;8.50;76.70;;;;;;5046474;28;20615;-70
2021/12/24 01:50:21;;;;;;;9.65;5.53;;;8.50;76.60;;;;;;5028818;28;20075;-72
2021/12/24 01:52:49;;;;;;;7.65;4.78;;;8.60;76.80;;;;;;5028355;28;20047;-72
2021/12/24 01:55:17;;;;;;;6.57;4.53;;;8.60;76.80;;;;;;5040943;28;20037;-72
2021/12/24 01:57:44;;;;;;;9.10;4.63;;;8.60;76.80;;;;;;5046702;28;20033;-72
2021/12/24 02:00:15;;;;;;;7.00;3.45;;;8.70;76.90;;;;;;5044873;28;20468;-72
2021/12/24 02:02:42;;;;;;;8.05;4.13;;;8.60;76.70;;;;;;5046387;28;20090;-72
2021/12/24 02:05:08;;;;;;;8.60;4.20;;;8.70;76.90;;;;;;5045143;28;20029;-72
2021/12/24 02:07:34;;;;;;;9.35;4.53;;;8.70;76.90;;;;;;5028569;28;20063;-71
2021/12/24 02:10:00;;;;;;;8.38;4.15;;;8.70;76.90;;;;;;5045228;28;20139;-71
2021/12/24 02:12:27;;;;;;;5.68;4.00;;;8.70;76.90;;;;;;5044667;28;20515;-72
2021/12/24 02:14:57;;;;;;;6.10;3.83;;;8.70;76.90;;;;;;5044902;28;20124;-72
2021/12/24 02:18:22;;;;;;;7.55;3.88;;;8.70;76.90;;;;;;5044463;28;20078;-72
2021/12/24 02:28:46;;;;;;;7.93;3.63;;;8.80;77.00;;;;;;5014822;28;20123;-72
2021/12/24 02:31:20;;;;;;;6.05;3.50;;;8.90;77.20;;;;;;5047803;28;20089;-71
2021/12/24 02:33:46;;;;;;;6.85;3.85;;;8.80;77.10;;;;;;5049821;28;20032;-71
2021/12/24 02:36:13;;;;;;;6.82;4.00;;;8.80;77.00;;;;;;5067695;28;20040;-71
2021/12/24 02:38:40;;;;;;;6.18;3.92;;;8.80;77.00;;;;;;5067095;28;20120;-71
2021/12/24 02:41:07;;;;;;;6.93;3.85;;;8.80;77.00;;;;;;5066031;28;20024;-71
2021/12/24 02:43:34;;;;;;;7.07;3.92;;;8.80;77.00;;;;;;5049566;28;20025;-72
2021/12/24 02:46:09;;;;;;;5.15;3.60;;;8.80;77.00;;;;;;5048937;28;20037;-71
2021/12/24 02:48:59;;;;;;;9.05;3.13;;;8.80;77.00;;;;;;5070313;28;20033;-71
2021/12/24 02:54:14;;;;;;;7.20;3.88;;;8.70;76.90;;;;;;5070561;28;20514;-71
2021/12/24 02:56:47;;;;;;;9.70;3.90;;;8.70;76.90;;;;;;5052415;28;20063;-71
2021/12/24 02:59:15;;;;;;;5.07;2.88;;;8.60;76.80;;;;;;5070432;28;20035;-71
2021/12/24 03:01:44;;;;;;;5.22;3.15;;;8.60;76.80;;;;;;5069012;28;20029;-71
2021/12/24 03:04:11;;;;;;;7.13;3.50;;;8.60;76.80;;;;;;5070611;28;20048;-71
2021/12/24 03:06:41;;;;;;;5.75;3.15;;;8.50;76.60;;;;;;5069694;28;20564;-71
2021/12/24 03:09:11;;;;;;;5.70;3.03;;;8.50;76.70;;;;;;5069279;28;20115;-71
2021/12/24 03:11:38;;;;;;;9.27;3.53;;;8.50;76.70;;;;;;5070686;28;20418;-71
2021/12/24 03:14:05;;;;;;;5.80;2.75;;;8.40;76.50;;;;;;5070549;28;20040;-71
2021/12/24 03:16:32;;;;;;;4.30;2.95;;;8.40;76.50;;;;;;5070437;28;20039;-71
2021/12/24 03:18:58;;;;;;;7.60;3.30;;;8.40;76.50;;;;;;5070005;28;20502;-71
2021/12/24 03:21:31;;;;;;;6.20;3.33;;;8.40;76.60;;;;;;5052756;28;20039;-71
2021/12/24 03:26:32;;;;;;;8.77;4.15;;;8.30;76.50;;;;;;5052545;28;20032;-71
2021/12/24 03:28:58;;;;;;;7.38;3.47;;;8.30;76.40;;;;;;5070396;28;20040;-71
2021/12/24 03:31:24;;;;;;;6.57;2.80;;;8.20;76.30;;;;;;5069017;28;20090;-71
2021/12/24 03:33:53;;;;;;;7.47;2.90;;;8.20;76.30;;;;;;5068858;28;20039;-71
2021/12/24 03:36:23;;;;;;;5.82;2.85;;;8.20;76.30;;;;;;5069000;28;20032;-71
2021/12/24 03:38:50;;;;;;;5.55;2.80;;;8.20;76.40;;;;;;5069356;28;20242;-71
2021/12/24 03:41:17;;;;;;;4.82;2.80;;;8.20;76.40;;;;;;5069251;28;20041;-71
2021/12/24 03:43:43;;;;;;;7.10;3.13;;;8.20;76.40;;;;;;5052174;28;20475;-71
2021/12/24 03:46:15;;;;;;;5.40;3.00;;;8.30;76.60;;;;;;5068619;28;20056;-71
2021/12/24 03:48:52;;;;;;;6.57;3.00;;;8.20;76.40;;;;;;5051731;28;20020;-71
2021/12/24 03:56:35;;;;;;;7.30;3.15;;;8.30;76.50;;;;;;5052367;28;20075;-71
2021/12/24 03:59:02;;;;;;;4.65;2.40;;;8.30;76.40;;;;;;5068756;28;20115;-70
2021/12/24 04:01:47;;;;;;;5.15;2.60;;;8.30;76.40;;;;;;5069893;28;20380;-71
2021/12/24 04:04:31;;;;;;;4.72;2.72;;;8.30;76.40;;;;;;5072381;28;20021;-71
2021/12/24 04:07:17;;;;;;;5.55;2.70;;;8.30;76.40;;;;;;5073426;28;20078;-71
2021/12/24 04:10:10;;;;;;;6.45;2.78;;;8.20;76.20;;;;;;5073544;28;20063;-71
2021/12/24 04:12:54;;;;;;;4.47;2.53;;;8.20;76.20;;;;;;5073474;28;20153;-70
2021/12/24 04:15:20;;;;;;;3.20;2.25;;;8.20;76.20;;;;;;5055746;28;20141;-70
2021/12/24 04:17:48;;;;;;;4.55;2.50;;;8.20;76.20;;;;;;5073352;28;20592;-70
2021/12/24 04:25:43;;;;;;;6.20;2.75;;;8.10;76.10;;;;;;5073308;28;20090;-70
2021/12/24 04:28:09;;;;;;;4.93;2.50;;;8.10;76.10;;;;;;5072208;28;20079;-70
2021/12/24 04:30:42;;;;;;;6.70;2.65;;;8.00;76.00;;;;;;5073225;28;20037;-71
2021/12/24 04:33:16;;;;;;;4.05;2.53;;;8.00;76.00;;;;;;5071933;28;20031;-70
2021/12/24 04:35:55;;;;;;;3.40;2.45;;;8.00;76.10;;;;;;5071957;28;20049;-71
2021/12/24 04:51:59;;;;;;;4.35;1.90;;;7.90;75.90;;;;;;5055071;28;20025;-70
2021/12/24 05:03:01;;;;;;;5.70;2.03;;;7.90;75.80;;;;;;5055074;28;20094;-71
2021/12/24 05:10:43;;;;;;;3.33;2.40;;;7.80;75.70;;;;;;5054654;28;20042;-71
2021/12/24 05:13:14;;;;;;;7.20;2.72;;;7.80;75.70;;;;;;5071263;28;20029;-71
2021/12/24 05:16:06;;;;;;;3.28;2.20;;;7.70;75.50;;;;;;5057996;28;20076;-70
2021/12/24 05:21:35;;;;;;;7.10;1.88;;;7.70;75.50;;;;;;5040101;28;20254;-70
2021/12/24 05:24:03;;;;;;;5.43;2.20;;;7.60;75.50;;;;;;5071023;28;20090;-70
2021/12/24 05:26:29;;;;;;;4.78;2.20;;;7.60;75.40;;;;;;5054613;28;20056;-70
2021/12/24 05:28:59;;;;;;;4.03;2.45;;;7.60;75.40;;;;;;5070535;28;20029;-70
2021/12/24 05:31:25;;;;;;;6.70;2.08;;;7.50;75.30;;;;;;5070808;28;20024;-70
2021/12/24 05:33:52;;;;;;;6.43;2.83;;;7.50;75.30;;;;;;5071126;28;20567;-70
2021/12/24 05:36:18;;;;;;;6.10;2.28;;;7.50;75.30;;;;;;5053925;28;20499;-71
2021/12/24 05:38:46;;;;;;;5.43;1.95;;;7.40;75.10;;;;;;5071935;28;20032;-71
2021/12/24 05:41:13;;;;;;;4.03;1.75;;;7.40;75.20;;;;;;5070715;28;20033;-70
2021/12/24 05:43:40;;;;;;;4.10;2.20;;;7.40;75.20;;;;;;5070655;28;20020;-71
2021/12/24 05:46:06;;;;;;;6.55;2.60;;;7.40;75.10;;;;;;5069970;28;20097;-71
2021/12/24 05:49:07;;;;;;;3.95;1.75;;;7.40;75.10;;;;;;5007567;28;20687;-71
2021/12/24 05:51:34;;;;;;;4.88;2.33;;;7.40;75.20;;;;;;5038056;28;20043;-71
2021/12/24 05:54:19;;;;;;;5.25;2.25;;;7.30;75.00;;;;;;5048401;28;20456;-71
2021/12/24 05:56:46;;;;;;;3.97;2.13;;;7.30;75.00;;;;;;5030460;28;20476;-70
2021/12/24 05:59:18;;;;;;;3.88;1.70;;;7.30;75.10;;;;;;5046472;28;20029;-70
2021/12/24 06:01:46;;;;;;;6.53;2.00;;;7.30;75.00;;;;;;5049859;28;20032;-71
2021/12/24 06:04:12;;;;;;;5.30;2.30;;;7.30;75.00;;;;;;5065411;28;20029;-71
2021/12/24 06:06:37;;;;;;;6.60;2.53;;;7.20;74.80;;;;;;5066609;28;20270;-70
2021/12/24 06:09:04;;;;;;;4.35;2.28;;;7.20;74.80;;;;;;5051488;28;20045;-70
2021/12/24 06:11:30;;;;;;;7.10;3.28;;;7.20;74.80;;;;;;5046228;28;20037;-71
2021/12/24 06:13:56;;;;;;;4.80;2.30;;;7.20;74.80;;;;;;5046021;28;20029;-70
2021/12/24 06:16:23;;;;;;;3.47;1.95;;;7.20;74.80;;;;;;5046272;28;20048;-71
2021/12/24 06:18:49;;;;;;;9.18;2.50;;;7.20;74.80;;;;;;5046081;28;20468;-71
2021/12/24 06:21:15;;;;;;;4.85;2.60;;;7.10;74.60;;;;;;5046039;28;20119;-71
2021/12/24 06:23:43;;;;;;;6.50;2.60;;;7.10;74.60;;;;;;5045734;28;20378;-71
2021/12/24 06:26:10;;;;;;;6.60;2.00;;;7.10;74.60;;;;;;5045599;28;20036;-71
2021/12/24 06:28:37;;;;;;;3.13;1.83;;;7.10;74.60;;;;;;5045542;28;20032;-70
2021/12/24 06:31:04;;;;;;;4.63;3.00;;;7.10;74.60;;;;;;5028480;28;20043;-70
2021/12/24 06:33:30;;;;;;;4.38;2.63;;;7.10;74.60;;;;;;5045823;28;20036;-70
2021/12/24 06:35:57;;;;;;;5.80;1.90;;;7.00;74.40;;;;;;5046558;28;20037;-71
2021/12/24 06:38:23;;;;;;;5.13;2.28;;;7.00;74.40;;;;;;5046298;28;20094;-70
2021/12/24 06:40:50;;;;;;;4.13;2.25;;;7.00;74.50;;;;;;5046151;28;20551;-70
2021/12/24 06:43:16;;;;;;;4.05;2.13;;;7.00;74.50;;;;;;5045573;28;20028;-70
2021/12/24 06:45:42;;;;;;;6.30;3.63;;;7.00;74.50;;;;;;5045944;28;20500;-73
2021/12/24 06:48:08;;;;;;;4.53;2.97;;;7.00;74.50;;;;;;5034030;28;20075;-71
2021/12/24 06:50:34;;;;;;;3.25;2.20;;;7.00;74.40;;;;;;5065430;28;20032;-72
2021/12/24 06:53:01;;;;;;;5.72;2.30;;;7.00;74.50;;;;;;5067072;28;20062;-70
2021/12/24 06:55:28;;;;;;;5.75;2.33;;;7.00;74.40;;;;;;5032000;28;20072;-70
2021/12/24 06:57:59;;;;;;;4.73;2.00;;;7.00;74.40;;;;;;5057580;28;20036;-71
2021/12/24 07:00:26;;;;;;;6.18;2.40;;;7.00;74.40;;;;;;5044924;28;20484;-70
2021/12/24 07:02:54;;;;;;;6.50;2.58;;;7.00;74.40;;;;;;5044136;28;20033;-71
2021/12/24 07:05:20;;;;;;;4.30;2.20;;;7.00;74.40;;;;;;5045713;28;20025;-70
2021/12/24 07:07:46;;;;;;;6.57;2.70;;;7.00;74.40;;;;;;5045185;28;20029;-71
2021/12/24 07:10:13;;;;;;;4.95;2.50;;;6.90;74.20;;;;;;5045549;28;20047;-70
2021/12/24 07:12:41;;;;;;;5.50;2.60;;;7.00;74.40;;;;;;5045437;28;20524;-72
2021/12/24 07:15:07;;;;;;;4.63;2.60;;;7.00;74.40;;;;;;5040102;28;20048;-71
2021/12/24 07:17:33;;;;;;;6.47;2.55;;;7.00;74.40;;;;;;5069660;28;20032;-71
2021/12/24 07:19:59;;;;;;;6.40;2.80;;;7.00;74.40;;;;;;5027928;28;20389;-70
2021/12/24 07:22:25;;;;;;;7.85;2.72;;;6.90;74.20;;;;;;5072551;28;20024;-71
2021/12/24 07:24:51;;;;;;;4.85;2.50;;;6.90;74.20;;;;;;5056679;28;20070;-71
2021/12/24 07:27:19;;;;;;;5.43;2.67;;;6.90;74.20;;;;;;5053782;28;20029;-71
2021/12/24 07:29:45;;;;;;;6.20;2.72;;;6.90;74.20;;;;;;5060292;28;20582;-71
2021/12/24 07:32:11;;;;;;;6.90;2.60;;;6.90;74.20;;;;;;5074731;28;20834;-71
2021/12/24 07:34:37;;;;;;;6.95;2.95;;;6.90;74.20;;;;;;5047133;28;20036;-71
2021/12/24 07:37:03;;;;;;;5.90;3.20;;;6.90;74.20;;;;;;5047697;28;20487;-71
2021/12/24 07:39:29;;;;;;;6.35;3.50;;;6.90;74.20;;;;;;5067335;28;20158;-71
2021/12/24 07:41:55;;;;;;;5.32;3.67;;;7.00;74.40;;;;;;5071436;28;20103;-72
2021/12/24 07:44:21;;;;;;;8.90;4.05;;;6.90;74.20;;;;;;5074086;28;20020;-71
2021/12/24 07:46:54;;;;;;;6.18;3.70;;;7.00;74.70;;;;;;5077791;28;20047;-71
2021/12/24 07:52:09;;;;;;;7.32;3.50;;;7.10;75.00;;;;;;5058942;28;20020;-72
2021/12/24 07:54:48;;;;;;;7.38;3.22;;;7.20;75.10;;;;;;5073860;28;20036;-70
2021/12/24 07:57:15;;;;;;;7.38;2.75;;;7.20;75.00;;;;;;5068372;28;20061;-71
2021/12/24 07:59:43;;;;;;;6.93;3.17;;;7.30;75.10;;;;;;5075524;28;20067;-71
2021/12/24 08:02:11;;;;;;;7.05;2.95;;;7.30;75.10;;;;;;5076585;28;20125;-71
2021/12/24 08:04:39;;;;;;;5.97;3.47;;;7.30;75.10;;;;;;5080918;28;20155;-72
2021/12/24 08:07:05;;;;;;;7.85;3.08;;;7.30;75.10;;;;;;5066791;28;20029;-71
2021/12/24 08:09:31;;;;;;;6.63;3.28;;;7.40;75.30;;;;;;5050309;28;20032;-70
2021/12/24 08:11:58;;;;;;;4.47;3.17;;;7.40;75.20;;;;;;5068839;28;20029;-71
2021/12/24 08:14:23;;;;;;;6.90;3.55;;;7.40;75.30;;;;;;5050610;28;20459;-71
2021/12/24 08:16:49;;;;;;;4.90;2.97;;;7.40;75.30;;;;;;5067458;28;20499;-71
2021/12/24 08:19:18;;;;;;;7.60;2.95;;;7.40;75.20;;;;;;5066814;28;20032;-70
2021/12/24 08:21:45;;;;;;;8.95;3.40;;;7.40;75.30;;;;;;5066021;28;20541;-70
2021/12/24 08:24:11;;;;;;;6.20;3.20;;;7.40;75.30;;;;;;5066639;28;20032;-71
2021/12/24 08:26:37;;;;;;;4.60;2.58;;;7.40;75.30;;;;;;5066922;28;20032;-73
2021/12/24 08:29:03;;;;;;;6.13;3.25;;;7.40;75.30;;;;;;5066941;28;20074;-71
2021/12/24 08:31:31;;;;;;;5.85;3.65;;;7.40;75.30;;;;;;5066809;28;20028;-71
2021/12/24 08:33:57;;;;;;;6.72;2.97;;;7.40;75.30;;;;;;5068577;28;20063;-71
2021/12/24 08:36:23;;;;;;;6.25;3.50;;;7.40;75.40;;;;;;5048924;28;20040;-71
2021/12/24 08:38:49;;;;;;;8.45;3.15;;;7.40;75.40;;;;;;5049523;28;20021;-71
2021/12/24 08:41:15;;;;;;;6.82;3.30;;;7.40;75.40;;;;;;5066017;28;20120;-71
2021/12/24 08:43:41;;;;;;;5.82;2.90;;;7.40;75.40;;;;;;5049179;28;20488;-72
2021/12/24 08:46:08;;;;;;;5.80;3.47;;;7.40;75.30;;;;;;5066293;28;20044;-71
2021/12/24 08:48:34;;;;;;;8.05;3.28;;;7.40;75.40;;;;;;5061807;28;20067;-71
2021/12/24 08:51:00;;;;;;;8.88;3.28;;;7.40;75.30;;;;;;5067198;28;20077;-71
2021/12/24 08:53:27;;;;;;;7.47;3.63;;;7.50;75.50;;;;;;5067145;28;20043;-71
2021/12/24 08:55:53;;;;;;;6.13;3.50;;;7.50;75.40;;;;;;5067700;28;20448;-71
2021/12/24 08:58:20;;;;;;;7.40;3.67;;;7.50;75.40;;;;;;5053636;28;20224;-71
2021/12/24 09:00:46;;;;;;;6.97;3.50;;;7.50;75.30;;;;;;5067952;28;20123;-71
2021/12/24 09:03:12;;;;;;;7.20;3.28;;;7.50;75.30;;;;;;5045968;28;20170;-70
2021/12/24 09:05:37;;;;;;;5.78;2.78;;;7.60;75.50;;;;;;5047909;28;20035;-71
2021/12/24 09:08:04;;;;;;;7.72;3.38;;;7.60;75.40;;;;;;5029676;28;20157;-71
2021/12/24 09:10:30;;;;;;;7.50;3.15;;;7.60;75.40;;;;;;5029220;28;20053;-71
2021/12/24 09:12:56;;;;;;;6.75;3.83;;;7.60;75.30;;;;;;5067447;28;20032;-71
2021/12/24 09:15:27;;;;;;;5.97;2.72;;;7.70;75.50;;;;;;5067882;28;20404;-70
2021/12/24 09:17:53;;;;;;;10.70;4.25;;;7.70;75.40;;;;;;5067846;28;20040;-72
2021/12/24 09:20:26;;;;;;;6.50;3.20;;;7.70;75.40;;;;;;5067402;28;20032;-71
2021/12/24 09:22:54;;;;;;;10.88;3.58;;;7.80;75.50;;;;;;5066530;28;20480;-71
2021/12/24 09:25:22;;;;;;;5.88;2.78;;;7.80;75.50;;;;;;5049378;28;20036;-71
2021/12/24 09:27:49;;;;;;;6.70;3.28;;;7.80;75.40;;;;;;5067300;28;20555;-70
2021/12/24 09:30:16;;;;;;;5.57;3.10;;;7.90;75.60;;;;;;5066959;28;20490;-71
2021/12/24 09:32:42;;;;;;;7.47;3.47;;;8.00;75.70;;;;;;5066912;28;20030;-71
2021/12/24 09:35:10;;;;;;;6.35;3.50;;;8.00;75.70;;;;;;5066823;28;20487;-73
2021/12/24 09:37:37;;;;;;;8.18;3.42;;;8.00;75.60;;;;;;5066907;28;20496;-69
2021/12/24 09:40:05;;;;;;;5.40;3.10;;;8.10;75.70;;;;;;5067159;28;20028;-73
2021/12/24 09:42:32;;;;;;;8.15;3.60;;;8.10;75.70;;;;;;5049228;28;20532;-73
2021/12/24 09:44:58;;;;;;;9.20;2.95;;;8.20;75.90;;;;;;5067098;28;20028;-73
2021/12/24 09:47:26;;;;;;;5.50;3.05;;;8.20;75.80;;;;;;5066551;28;20212;-73
2021/12/24 09:49:53;;;;;;;8.93;3.47;;;8.30;76.00;;;;;;5066437;28;20185;-72
2021/12/24 09:52:20;;;;;;;8.07;3.60;;;8.40;76.10;;;;;;5066007;28;20035;-73
2021/12/24 09:54:47;;;;;;;7.75;2.70;;;8.40;76.00;;;;;;5066804;28;20109;-72
2021/12/24 09:57:15;;;;;;;8.35;3.85;;;8.50;76.10;;;;;;5049060;28;20056;-73
2021/12/24 09:59:42;;;;;;;8.70;4.05;;;8.50;76.10;;;;;;5066128;28;20028;-72
2021/12/24 10:02:15;;;;;;;8.52;3.05;;;8.60;76.20;;;;;;5065900;28;20115;-72
2021/12/24 10:04:42;;;;;;;6.78;2.95;;;8.70;76.30;;;;;;5066463;28;20028;-71
2021/12/24 10:07:13;;;;;;;10.88;3.65;;;8.80;76.30;;;;;;5066708;28;20592;-73
2021/12/24 10:09:44;;;;;;;7.97;3.33;;;8.80;76.20;;;;;;5065998;28;20515;-72
2021/12/24 10:12:19;;;;;;;7.95;3.28;;;8.90;76.30;;;;;;5066462;28;20086;-71
2021/12/24 10:14:56;;;;;;;10.75;3.47;;;9.00;76.40;;;;;;5062193;28;20036;-72
2021/12/24 10:17:31;;;;;;;7.97;3.17;;;9.00;76.40;;;;;;5054367;28;20040;-73
2021/12/24 10:20:00;;;;;;;7.90;3.28;;;9.10;76.50;;;;;;5046082;28;20449;-72
2021/12/24 10:22:26;;;;;;;9.30;3.45;;;9.20;76.60;;;;;;5027676;28;20475;-72
2021/12/24 10:25:05;;;;;;;11.93;4.53;;;9.20;76.50;;;;;;5062324;28;20024;-71
2021/12/24 10:27:34;;;;;;;9.55;3.25;;;9.30;76.80;;;;;;5064809;28;20036;-73
2021/12/24 10:30:15;;;;;;;14.75;4.03;;;9.50;77.50;;;;;;5048358;28;20029;-72
2021/12/24 10:32:41;;;;;;;8.52;3.20;;;9.70;77.70;;;;;;5065857;28;20199;-73
2021/12/24 10:35:26;;;;;;;12.50;3.75;;;9.90;77.70;;;;;;5066042;28;20041;-71
2021/12/24 10:38:18;;;;;;;7.32;3.03;;;10.00;77.80;;;;;;5065551;28;20041;-72
2021/12/24 10:40:54;;;;;;;7.78;2.63;;;10.00;77.60;;;;;;5065958;28;20371;-71
2021/12/24 10:43:40;;;;;;;4.47;2.17;;;10.10;77.60;;;;;;5066301;28;20040;-71
2021/12/24 10:46:10;;;;;;;5.97;2.70;;;10.20;77.80;;;;;;5065689;28;20035;-72
2021/12/24 10:48:38;;;;;;;6.72;3.10;;;10.20;77.70;;;;;;5065686;28;20197;-72
2021/12/24 10:51:19;;;;;;;7.35;3.42;;;10.20;77.60;;;;;;5065115;28;20071;-71
2021/12/24 10:54:07;;;;;;;4.90;4.43;;;10.30;77.90;;;;;;5065224;28;20422;-72
2021/12/24 10:56:33;;;;;;;5.53;2.60;;;10.30;77.90;;;;;;5064912;28;20044;-72
2021/12/24 10:58:59;;;;;;;7.55;3.28;;;10.30;77.80;;;;;;5065478;28;20025;-72
2021/12/24 11:01:25;;;;;;;6.82;2.67;;;10.30;77.80;;;;;;5065367;28;20367;-73
2021/12/24 11:03:51;;;;;;;7.05;3.00;;;10.30;77.90;;;;;;5047739;28;20028;-71
2021/12/24 11:06:17;;;;;;;7.43;2.92;;;10.40;78.00;;;;;;5065644;28;20028;-72
2021/12/24 11:08:43;;;;;;;6.45;2.80;;;10.40;78.10;;;;;;5065175;28;20097;-72
2021/12/24 11:11:15;;;;;;;6.65;3.13;;;10.40;78.10;;;;;;5065723;28;20171;-71
2021/12/24 11:13:44;;;;;;;9.43;4.07;;;10.40;78.00;;;;;;5067314;28;20024;-72
2021/12/24 11:16:17;;;;;;;8.98;4.00;;;10.40;78.00;;;;;;5069496;28;20040;-71
2021/12/24 11:18:46;;;;;;;5.03;2.95;;;10.40;78.00;;;;;;5069480;28;20024;-72
2021/12/24 11:21:20;;;;;;;6.95;3.33;;;10.40;78.00;;;;;;5070070;28;20141;-72
2021/12/24 11:23:46;;;;;;;7.68;3.47;;;10.40;78.00;;;;;;5069110;28;20028;-72
2021/12/24 11:26:25;;;;;;;4.28;3.17;;;10.40;78.00;;;;;;5069849;28;20031;-72
2021/12/24 11:28:51;;;;;;;7.22;3.00;;;10.50;78.20;;;;;;5068839;28;20029;-72
2021/12/24 11:31:19;;;;;;;7.88;2.80;;;10.50;78.10;;;;;;5068967;28;20025;-72
2021/12/24 11:33:46;;;;;;;6.95;3.10;;;10.50;78.00;;;;;;5068323;28;20068;-71
2021/12/24 11:36:15;;;;;;;6.57;3.50;;;10.50;78.00;;;;;;5050434;28;20119;-70
2021/12/24 11:38:47;;;;;;;7.72;2.80;;;10.60;78.20;;;;;;5067767;28;20499;-73
2021/12/24 11:41:15;;;;;;;7.25;2.90;;;10.70;78.30;;;;;;5069295;28;20032;-72
2021/12/24 11:43:44;;;;;;;6.18;2.53;;;10.70;78.20;;;;;;5068759;28;20039;-72
2021/12/24 11:46:12;;;;;;;6.78;2.70;;;10.70;78.10;;;;;;5068944;28;20035;-73
2021/12/24 11:48:38;;;;;;;5.97;2.72;;;10.80;78.10;;;;;;5068954;28;20063;-71
2021/12/24 11:51:16;;;;;;;5.20;2.75;;;10.80;78.10;;;;;;5068491;28;20041;-72
2021/12/24 11:53:42;;;;;;;5.93;2.70;;;10.90;78.10;;;;;;5068862;28;20327;-71
2021/12/24 11:56:11;;;;;;;5.00;2.63;;;11.00;78.10;;;;;;5050866;28;20558;-70
2021/12/24 11:58:45;;;;;;;5.55;2.38;;;11.00;78.10;;;;;;5069559;28;20456;-71
2021/12/24 12:01:14;;;;;;;5.63;3.22;;;11.00;78.00;;;;;;5050710;28;20040;-71
2021/12/24 12:03:49;;;;;;;5.32;2.60;;;11.00;78.00;;;;;;5045957;28;20036;-70
2021/12/24 12:06:23;;;;;;;3.80;2.42;;;11.00;78.00;;;;;;5037370;28;20028;-72
2021/12/24 12:09:11;;;;;;;8.40;4.82;;;11.00;77.90;;;;;;5057794;28;20369;-71
2021/12/24 12:11:40;;;;;;;8.27;3.03;;;11.00;78.00;;;;;;5068659;28;20111;-71
2021/12/24 12:14:23;;;;;;;8.23;2.63;;;11.00;78.20;;;;;;5058061;28;20041;-71
2021/12/24 12:16:56;;;;;;;7.45;3.00;;;11.10;78.60;;;;;;5048836;28;20120;-71
2021/12/24 12:22:32;;;;;;;7.50;2.88;;;11.40;78.70;;;;;;5047517;28;20028;-71
2021/12/24 12:25:01;;;;;;;5.93;2.35;;;11.50;78.60;;;;;;5048012;28;20391;-71
2021/12/24 12:27:44;;;;;;;3.38;2.00;;;11.70;78.70;;;;;;5048848;28;20394;-74
2021/12/24 12:30:41;;;;;;;6.18;2.33;;;11.80;79.30;;;;;;5030971;28;20060;-73
2021/12/24 12:33:10;;;;;;;5.45;1.88;;;12.10;79.70;;;;;;5048186;28;20032;-73
2021/12/24 12:35:48;;;;;;;5.13;2.15;;;12.50;79.80;;;;;;5070635;28;20041;-72
2021/12/24 12:38:39;;;;;;;5.35;2.10;;;12.70;79.50;;;;;;5051217;28;20043;-73
2021/12/24 12:41:33;;;;;;;5.97;1.95;;;12.80;79.20;;;;;;5069891;28;20380;-72
2021/12/24 12:44:03;;;;;;;4.05;1.75;;;12.90;79.10;;;;;;5053939;28;20434;-73
2021/12/24 12:46:36;;;;;;;3.92;2.00;;;12.90;79.00;;;;;;5049567;28;20631;-73
2021/12/24 12:49:07;;;;;;;3.67;2.60;;;12.80;78.80;;;;;;5048487;28;20068;-73
2021/12/24 12:51:58;;;;;;;3.75;1.50;;;12.80;78.90;;;;;;5056237;28;20040;-73
2021/12/24 12:54:48;;;;;;;5.78;2.05;;;12.70;78.90;;;;;;5069489;28;20087;-72
2021/12/24 12:57:31;;;;;;;3.95;1.75;;;12.70;79.00;;;;;;5070496;28;20045;-72
2021/12/24 13:00:19;;;;;;;17.42;2.17;;;12.60;79.00;;;;;;5069998;28;20036;-72
2021/12/24 13:02:57;;;;;;;11.82;2.83;;;12.50;79.10;;;;;;5067919;28;20091;-70
2021/12/24 13:05:25;;;;;;;15.73;3.15;;;12.50;79.70;;;;;;5068598;28;20120;-70
2021/12/24 13:07:51;;;;;;;13.93;3.22;;;12.60;80.20;;;;;;5068471;28;20024;-71
2021/12/24 13:10:18;;;;;;;10.48;4.15;;;12.80;80.70;;;;;;5066850;28;20115;-72
2021/12/24 13:12:45;;;;;;;9.45;2.20;;;13.10;81.10;;;;;;5067387;28;20032;-72
2021/12/24 13:15:16;;;;;;;11.43;3.00;;;13.40;81.00;;;;;;5069833;28;20036;-71
2021/12/24 13:17:48;;;;;;;8.68;2.33;;;13.50;80.70;;;;;;5052495;28;20032;-73
2021/12/24 13:20:19;;;;;;;7.95;2.72;;;13.60;80.50;;;;;;5067394;28;20028;-70
2021/12/24 13:22:45;;;;;;;5.35;2.10;;;13.50;80.30;;;;;;5068133;28;20025;-70
2021/12/24 13:25:16;;;;;;;7.22;2.70;;;13.50;80.30;;;;;;5068022;28;20037;-71
2021/12/24 13:27:48;;;;;;;7.75;2.70;;;13.50;80.40;;;;;;5042300;28;20036;-73
2021/12/24 13:30:26;;;;;;;7.55;3.17;;;13.40;80.30;;;;;;5062539;28;20036;-72
2021/12/24 13:32:57;;;;;;;3.92;1.73;;;13.40;80.30;;;;;;5066916;28;20032;-72
2021/12/24 13:35:28;;;;;;;12.27;2.70;;;13.30;80.30;;;;;;5065131;28;20121;-72
2021/12/24 13:37:55;;;;;;;3.65;2.38;;;13.30;80.30;;;;;;5064839;28;20519;-73
2021/12/24 13:40:27;;;;;;;5.85;2.45;;;13.30;80.40;;;;;;5046581;28;20406;-72
2021/12/24 13:43:01;;;;;;;4.35;2.60;;;13.30;80.40;;;;;;5050542;28;20024;-72
2021/12/24 13:45:32;;;;;;;6.55;2.40;;;13.20;80.20;;;;;;5068871;28;20154;-72
2021/12/24 13:48:04;;;;;;;4.10;1.70;;;13.20;80.20;;;;;;5062768;28;20041;-72
2021/12/24 13:56:46;;;;;;;3.28;1.92;;;13.00;80.00;;;;;;5046236;28;20048;-72
2021/12/24 13:59:19;;;;;;;6.05;2.50;;;13.00;80.10;;;;;;5046473;28;20033;-71
2021/12/24 14:01:45;;;;;;;4.47;2.63;;;13.00;80.10;;;;;;5058561;28;20040;-71
2021/12/24 14:04:14;;;;;;;2.90;1.92;;;12.90;80.00;;;;;;5055972;28;20262;-71
2021/12/24 14:06:44;;;;;;;4.38;2.33;;;12.90;80.00;;;;;;5046045;28;20033;-71
2021/12/24 14:09:19;;;;;;;5.00;2.25;;;12.90;80.00;;;;;;5043841;28;20021;-71
2021/12/24 14:11:48;;;;;;;2.90;2.00;;;12.90;79.90;;;;;;5044082;28;20122;-71
2021/12/24 14:14:30;;;;;;;3.08;2.28;;;12.90;79.90;;;;;;5043315;28;20538;-70
2021/12/24 14:20:03;;;;;;;8.10;2.30;;;12.90;79.80;;;;;;5043687;28;20520;-71
2021/12/24 14:22:32;;;;;;;3.33;2.97;;;12.90;79.80;;;;;;5044651;28;20120;-71
2021/12/24 14:25:08;;;;;;;4.05;2.20;;;12.90;79.70;;;;;;5045861;28;20576;-71
2021/12/24 14:27:37;;;;;;;2.03;1.73;;;12.90;79.70;;;;;;5027963;28;20040;-71
2021/12/24 14:30:11;;;;;;;4.97;2.15;;;12.90;79.60;;;;;;5046436;28;20094;-71
2021/12/24 14:32:41;;;;;;;4.65;2.78;;;12.90;79.60;;;;;;5045970;28;20033;-71
2021/12/24 14:35:19;;;;;;;4.38;2.28;;;12.90;79.60;;;;;;5063711;28;20131;-72
2021/12/24 14:37:56;;;;;;;3.33;2.15;;;12.90;79.50;;;;;;5048415;28;20036;-70
2021/12/24 14:40:23;;;;;;;3.40;2.20;;;12.90;79.50;;;;;;5073564;28;20047;-70
2021/12/24 14:42:51;;;;;;;7.78;3.55;;;12.80;79.30;;;;;;5076775;28;20058;-73
2021/12/24 14:45:32;;;;;;;2.33;2.10;;;12.80;79.30;;;;;;5030215;28;20494;-71
2021/12/24 14:48:14;;;;;;;3.88;2.15;;;12.80;79.40;;;;;;5054696;28;20057;-71
2021/12/24 14:51:02;;;;;;;3.60;1.98;;;12.80;79.40;;;;;;5070657;28;20187;-70
2021/12/24 14:53:33;;;;;;;3.85;1.95;;;12.80;79.50;;;;;;5079951;28;20032;-71
2021/12/24 14:56:06;;;;;;;4.45;2.38;;;12.80;79.50;;;;;;5055126;28;20150;-72